createdAt,value
2022-08-26T00:00:15.783Z,24.20
2022-08-26T00:02:43.858Z,24.10
2022-08-26T00:05:13.435Z,24.10
2022-08-26T00:07:41.581Z,24.10
2022-08-26T00:10:12.378Z,24.00
2022-08-26T00:12:40.785Z,24.00
2022-08-26T00:15:13.558Z,24.00
2022-08-26T00:17:42.342Z,24.00
2022-08-26T00:20:12.056Z,24.00
2022-08-26T00:22:42.286Z,23.90
2022-08-26T00:25:12.103Z,23.90
2022-08-26T00:27:40.851Z,23.90
2022-08-26T00:30:14.960Z,23.90
2022-08-26T00:32:44.085Z,23.90
2022-08-26T00:35:15.461Z,23.90
2022-08-26T00:37:45.178Z,23.90
2022-08-26T00:40:18.518Z,23.80
2022-08-26T00:42:46.934Z,23.80
2022-08-26T00:45:18.225Z,23.80
2022-08-26T00:47:49.697Z,23.80
2022-08-26T00:50:21.566Z,23.80
2022-08-26T00:52:52.684Z,23.70
2022-08-26T00:55:24.192Z,23.70
2022-08-26T00:57:56.826Z,23.70
2022-08-26T01:00:28.448Z,23.60
2022-08-26T01:02:57.560Z,23.60
2022-08-26T01:05:26.089Z,23.60
2022-08-26T01:07:55.603Z,23.50
2022-08-26T01:10:28.979Z,23.50
2022-08-26T01:13:01.230Z,23.40
2022-08-26T01:15:35.916Z,23.40
2022-08-26T01:18:05.577Z,23.40
2022-08-26T01:20:42.403Z,23.40
2022-08-26T01:23:13.554Z,23.30
2022-08-26T01:25:45.473Z,23.30
2022-08-26T01:28:17.704Z,23.30
2022-08-26T01:30:47.777Z,23.20
2022-08-26T01:33:20.306Z,23.20
2022-08-26T01:35:48.906Z,23.20
2022-08-26T01:38:18.730Z,23.20
2022-08-26T01:40:47.577Z,23.20
2022-08-26T01:43:22.947Z,23.10
2022-08-26T01:45:54.581Z,23.10
2022-08-26T01:48:28.457Z,23.10
2022-08-26T01:50:57.475Z,23.00
2022-08-26T01:53:27.973Z,23.10
2022-08-26T01:55:59.872Z,23.10
2022-08-26T01:58:33.455Z,23.00
2022-08-26T02:01:02.537Z,23.00
2022-08-26T02:03:31.689Z,23.00
2022-08-26T02:06:03.925Z,22.90
2022-08-26T02:08:38.364Z,23.00
2022-08-26T02:11:07.789Z,22.90
2022-08-26T02:13:41.161Z,22.90
2022-08-26T02:16:11.018Z,22.90
2022-08-26T02:18:42.704Z,22.80
2022-08-26T02:21:12.684Z,22.80
2022-08-26T02:23:42.583Z,22.80
2022-08-26T02:26:16.504Z,22.80
2022-08-26T02:28:51.337Z,22.80
2022-08-26T02:31:19.900Z,22.80
2022-08-26T02:33:48.165Z,22.70
2022-08-26T02:36:20.840Z,22.70
2022-08-26T02:38:50.315Z,22.70
2022-08-26T02:41:20.486Z,22.60
2022-08-26T02:43:51.192Z,22.60
2022-08-26T02:46:21.563Z,22.60
2022-08-26T02:48:56.177Z,22.60
2022-08-26T02:51:24.469Z,22.60
2022-08-26T02:53:53.900Z,22.60
2022-08-26T02:56:23.732Z,22.60
2022-08-26T02:58:51.965Z,22.50
2022-08-26T03:01:25.607Z,22.50
2022-08-26T03:03:53.824Z,22.50
2022-08-26T03:06:22.086Z,22.50
2022-08-26T03:08:50.294Z,22.50
2022-08-26T03:11:20.469Z,22.40
2022-08-26T03:13:49.877Z,22.40
2022-08-26T03:16:18.549Z,22.40
2022-08-26T03:18:52.186Z,22.40
2022-08-26T03:21:21.429Z,22.30
2022-08-26T03:23:49.916Z,22.30
2022-08-26T03:26:19.583Z,22.20
2022-08-26T03:29:06.136Z,22.30
2022-08-26T03:31:36.151Z,22.20
2022-08-26T03:34:04.622Z,22.20
2022-08-26T03:36:33.655Z,22.20
2022-08-26T03:39:03.293Z,22.20
2022-08-26T03:41:34.355Z,22.10
2022-08-26T03:44:02.642Z,22.10
2022-08-26T03:46:33.175Z,22.10
2022-08-26T03:49:02.803Z,22.10
2022-08-26T03:51:31.795Z,22.10
2022-08-26T03:54:02.983Z,22.00
2022-08-26T03:56:33.726Z,22.00
2022-08-26T03:59:02.266Z,22.00
2022-08-26T04:01:31.217Z,22.00
2022-08-26T04:04:01.336Z,22.00
2022-08-26T04:06:32.519Z,22.00
2022-08-26T04:09:03.163Z,22.00
2022-08-26T04:11:38.288Z,22.00
2022-08-26T04:14:09.106Z,21.90
2022-08-26T04:16:37.453Z,21.90
2022-08-26T04:19:07.577Z,21.90
2022-08-26T04:21:38.165Z,21.90
2022-08-26T04:24:09.275Z,21.80
2022-08-26T04:26:42.713Z,21.80
2022-08-26T04:29:14.556Z,21.80
2022-08-26T04:31:43.118Z,21.80
2022-08-26T04:34:11.862Z,21.80
2022-08-26T04:36:43.074Z,21.70
2022-08-26T04:39:16.567Z,21.70
2022-08-26T04:41:50.138Z,21.70
2022-08-26T04:44:19.414Z,21.70
2022-08-26T04:46:47.774Z,21.70
2022-08-26T04:49:17.146Z,21.70
2022-08-26T04:51:47.065Z,21.70
2022-08-26T04:54:16.385Z,21.60
2022-08-26T04:56:49.389Z,21.60
2022-08-26T04:59:18.641Z,21.60
2022-08-26T05:01:48.447Z,21.60
2022-08-26T05:04:19.082Z,21.60
2022-08-26T05:06:47.574Z,21.60
2022-08-26T05:09:16.238Z,21.60
2022-08-26T05:11:45.605Z,21.60
2022-08-26T05:14:18.334Z,21.60
2022-08-26T05:16:47.939Z,21.60
2022-08-26T05:19:19.164Z,21.60
2022-08-26T05:21:48.344Z,21.60
2022-08-26T05:24:17.162Z,21.60
2022-08-26T05:26:46.410Z,21.60
2022-08-26T05:29:14.962Z,21.60
2022-08-26T05:31:46.357Z,21.70
2022-08-26T05:34:15.672Z,21.70
2022-08-26T05:36:43.710Z,21.70
2022-08-26T05:39:11.785Z,21.70
2022-08-26T05:41:43.007Z,21.70
2022-08-26T05:44:15.234Z,21.80
2022-08-26T05:46:46.637Z,21.80
2022-08-26T05:49:16.228Z,21.80
2022-08-26T05:51:46.311Z,21.90
2022-08-26T05:54:21.818Z,21.90
2022-08-26T05:56:51.148Z,21.90
2022-08-26T05:59:23.888Z,22.00
2022-08-26T06:01:54.928Z,22.00
2022-08-26T06:04:27.073Z,22.00
2022-08-26T06:06:57.499Z,22.10
2022-08-26T06:09:26.613Z,22.20
2022-08-26T06:11:55.898Z,22.40
2022-08-26T06:14:25.942Z,22.50
2022-08-26T06:16:55.954Z,22.70
2022-08-26T06:19:24.678Z,22.80
2022-08-26T06:21:54.740Z,23.00
2022-08-26T06:24:40.893Z,23.20
2022-08-26T06:27:13.758Z,23.30
2022-08-26T06:29:42.858Z,23.60
2022-08-26T06:32:12.929Z,23.70
2022-08-26T06:34:41.436Z,23.90
2022-08-26T06:37:09.904Z,24.10
2022-08-26T06:39:40.109Z,24.20
2022-08-26T06:42:11.776Z,24.40
2022-08-26T06:44:41.649Z,24.70
2022-08-26T06:47:14.582Z,24.80
2022-08-26T06:49:44.323Z,25.00
2022-08-26T06:52:12.650Z,25.10
2022-08-26T06:54:43.097Z,25.30
2022-08-26T06:57:14.282Z,25.50
2022-08-26T06:59:44.966Z,25.70
2022-08-26T07:02:15.183Z,25.80
2022-08-26T07:04:47.731Z,26.00
2022-08-26T07:07:16.829Z,26.10
2022-08-26T07:09:45.911Z,26.30
2022-08-26T07:12:14.187Z,26.40
2022-08-26T07:14:47.267Z,26.60
2022-08-26T07:17:17.602Z,26.80
2022-08-26T07:19:49.783Z,26.90
2022-08-26T07:22:18.751Z,27.00
2022-08-26T07:24:47.092Z,27.10
2022-08-26T07:27:17.006Z,27.20
2022-08-26T07:29:45.866Z,27.30
2022-08-26T07:32:17.098Z,27.40
2022-08-26T07:34:46.407Z,27.40
2022-08-26T07:37:15.390Z,27.50
2022-08-26T07:39:46.066Z,27.60
2022-08-26T07:42:17.086Z,27.70
2022-08-26T07:44:47.293Z,27.70
2022-08-26T07:47:24.994Z,27.80
2022-08-26T07:49:54.772Z,27.90
2022-08-26T07:52:26.604Z,28.00
2022-08-26T07:54:55.667Z,28.00
2022-08-26T07:57:24.267Z,28.10
2022-08-26T07:59:53.980Z,28.20
2022-08-26T08:02:25.814Z,28.20
2022-08-26T08:04:54.745Z,28.30
2022-08-26T08:07:25.856Z,28.30
2022-08-26T08:10:14.114Z,28.30
2022-08-26T08:12:43.033Z,28.40
2022-08-26T08:15:13.357Z,28.50
2022-08-26T08:17:43.781Z,28.60
2022-08-26T08:20:13.933Z,28.70
2022-08-26T08:22:43.554Z,28.70
2022-08-26T08:25:11.830Z,28.70
2022-08-26T08:27:41.812Z,28.80
2022-08-26T08:30:13.904Z,28.80
2022-08-26T08:32:44.427Z,28.80
2022-08-26T08:35:16.011Z,28.80
2022-08-26T08:37:46.205Z,28.90
2022-08-26T08:40:18.370Z,28.90
2022-08-26T08:45:26.090Z,28.80
2022-08-26T08:47:58.593Z,28.80
2022-08-26T08:50:30.782Z,28.90
2022-08-26T08:53:16.413Z,28.90
2022-08-26T08:56:07.411Z,29.00
2022-08-26T08:58:49.182Z,28.90
2022-08-26T09:01:29.363Z,29.00
2022-08-26T09:04:18.358Z,28.90
2022-08-26T09:06:48.197Z,29.00
2022-08-26T09:09:23.629Z,29.10
2022-08-26T09:11:51.976Z,29.10
2022-08-26T09:14:20.079Z,29.00
2022-08-26T09:16:53.838Z,29.10
2022-08-26T09:19:31.128Z,29.10
2022-08-26T09:22:02.165Z,29.10
2022-08-26T09:24:41.678Z,29.10
2022-08-26T09:27:11.490Z,29.10
2022-08-26T09:29:44.330Z,29.10
2022-08-26T09:32:20.710Z,29.10
2022-08-26T09:35:01.960Z,29.10
2022-08-26T09:37:39.230Z,29.10
2022-08-26T09:40:18.067Z,29.10
2022-08-26T09:42:47.077Z,29.00
2022-08-26T09:45:17.073Z,29.00
2022-08-26T09:47:55.322Z,29.10
2022-08-26T09:50:29.305Z,29.10
2022-08-26T09:53:09.874Z,29.20
2022-08-26T09:55:43.358Z,29.20
2022-08-26T09:58:16.164Z,29.30
2022-08-26T10:00:53.934Z,29.40
2022-08-26T10:03:28.513Z,29.40
2022-08-26T10:06:02.638Z,29.40
2022-08-26T10:08:34.687Z,29.50
2022-08-26T10:11:06.914Z,29.50
2022-08-26T10:13:41.191Z,29.50
2022-08-26T10:16:17.796Z,29.60
2022-08-26T10:18:54.722Z,29.70
2022-08-26T10:21:33.939Z,29.70
2022-08-26T10:24:11.497Z,29.60
2022-08-26T10:26:45.571Z,29.70
2022-08-26T10:29:17.106Z,29.70
2022-08-26T10:31:51.609Z,29.80
2022-08-26T10:34:21.213Z,29.80
2022-08-26T10:37:16.186Z,29.80
2022-08-26T10:39:58.766Z,29.80
2022-08-26T10:42:38.792Z,29.80
2022-08-26T10:45:11.908Z,29.80
2022-08-26T10:47:48.785Z,29.80
2022-08-26T10:50:18.270Z,29.70
2022-08-26T10:52:58.720Z,29.70
2022-08-26T10:55:36.628Z,29.70
2022-08-26T10:58:26.653Z,29.70
2022-08-26T11:01:23.123Z,29.60
2022-08-26T11:04:01.246Z,29.50
2022-08-26T11:06:31.528Z,29.50
2022-08-26T11:09:03.491Z,29.40
2022-08-26T11:11:50.656Z,29.40
2022-08-26T11:14:53.748Z,29.30
2022-08-26T11:17:59.996Z,29.40
2022-08-26T11:20:41.529Z,29.40
2022-08-26T11:23:40.390Z,29.50
2022-08-26T11:26:55.023Z,29.60
2022-08-26T11:29:59.219Z,29.60
2022-08-26T11:32:48.634Z,29.70
2022-08-26T11:35:50.713Z,29.70
2022-08-26T11:38:28.554Z,29.70
2022-08-26T11:41:09.744Z,29.70
2022-08-26T11:43:41.327Z,29.70
2022-08-26T11:46:11.720Z,29.80
2022-08-26T11:48:41.722Z,29.80
2022-08-26T11:51:12.200Z,29.80
2022-08-26T11:53:44.666Z,29.90
2022-08-26T11:56:24.512Z,29.90
2022-08-26T11:58:58.516Z,29.90
2022-08-26T12:01:31.322Z,30.00
2022-08-26T12:04:01.414Z,30.00
2022-08-26T12:06:32.318Z,30.10
2022-08-26T12:09:03.022Z,30.10
2022-08-26T12:11:36.929Z,30.10
2022-08-26T12:14:08.995Z,30.20
2022-08-26T12:16:39.472Z,30.20
2022-08-26T12:19:25.207Z,30.20
2022-08-26T12:21:56.778Z,30.30
2022-08-26T12:24:25.342Z,30.30
2022-08-26T12:27:12.272Z,30.40
2022-08-26T12:29:42.214Z,30.40
2022-08-26T12:32:19.433Z,30.50
2022-08-26T12:34:49.947Z,30.50
2022-08-26T12:37:18.858Z,30.40
2022-08-26T12:39:47.954Z,30.40
2022-08-26T12:42:42.332Z,30.50
2022-08-26T12:45:12.218Z,30.50
2022-08-26T12:47:44.241Z,30.50
2022-08-26T12:50:20.001Z,30.50
2022-08-26T12:52:57.409Z,30.50
2022-08-26T12:55:35.547Z,30.50
2022-08-26T12:58:21.248Z,30.40
2022-08-26T13:01:00.286Z,30.50
2022-08-26T13:03:43.557Z,30.40
2022-08-26T13:06:17.853Z,30.40
2022-08-26T13:08:51.698Z,30.40
2022-08-26T13:11:23.590Z,30.40
2022-08-26T13:13:53.601Z,30.40
2022-08-26T13:16:25.543Z,30.40
2022-08-26T13:18:55.791Z,30.40
2022-08-26T13:21:26.960Z,30.30
2022-08-26T13:23:56.013Z,30.30
2022-08-26T13:26:24.197Z,30.30
2022-08-26T13:29:01.767Z,30.20
2022-08-26T13:31:34.589Z,30.20
2022-08-26T13:34:03.472Z,30.20
2022-08-26T13:36:32.027Z,30.10
2022-08-26T13:39:06.500Z,30.10
2022-08-26T13:41:34.718Z,30.10
2022-08-26T13:44:02.962Z,29.90
2022-08-26T13:46:32.954Z,29.90
2022-08-26T13:49:01.177Z,29.80
2022-08-26T13:51:29.810Z,29.70
2022-08-26T13:53:58.470Z,29.70
2022-08-26T13:56:29.389Z,29.60
2022-08-26T13:58:57.620Z,29.50
2022-08-26T14:01:26.639Z,29.50
2022-08-26T14:03:56.464Z,29.30
2022-08-26T14:06:25.020Z,29.30
2022-08-26T14:08:53.157Z,29.10
2022-08-26T14:11:21.527Z,29.10
2022-08-26T14:13:50.438Z,29.00
2022-08-26T14:16:24.835Z,29.00
2022-08-26T14:18:53.338Z,28.90
2022-08-26T14:21:23.270Z,28.80
2022-08-26T14:23:51.387Z,28.70
2022-08-26T14:26:28.594Z,28.70
2022-08-26T14:28:58.824Z,28.60
2022-08-26T14:31:29.264Z,28.50
2022-08-26T14:33:59.521Z,28.40
2022-08-26T14:36:29.178Z,28.20
2022-08-26T14:39:00.213Z,28.00
2022-08-26T14:41:28.981Z,27.90
2022-08-26T14:44:00.966Z,27.70
2022-08-26T14:46:31.048Z,27.50
2022-08-26T14:49:01.057Z,27.40
2022-08-26T14:51:31.352Z,27.30
2022-08-26T14:54:14.263Z,27.20
2022-08-26T14:56:46.934Z,27.00
2022-08-26T14:59:17.442Z,26.80
2022-08-26T15:01:45.898Z,26.70
2022-08-26T15:04:14.271Z,26.60
2022-08-26T15:06:43.901Z,26.60
2022-08-26T15:09:12.572Z,26.50
2022-08-26T15:11:40.913Z,26.40
2022-08-26T15:14:19.080Z,26.40
2022-08-26T15:16:48.792Z,26.40
2022-08-26T15:19:17.510Z,26.30
2022-08-26T15:21:47.870Z,26.30
2022-08-26T15:24:18.077Z,26.30
2022-08-26T15:26:47.324Z,26.20
2022-08-26T15:29:15.530Z,26.20
2022-08-26T15:31:43.840Z,26.10
2022-08-26T15:34:16.715Z,26.10
2022-08-26T15:36:48.202Z,26.10
2022-08-26T15:39:18.102Z,26.00
2022-08-26T15:41:46.945Z,25.90
2022-08-26T15:44:16.888Z,25.90
2022-08-26T15:46:45.127Z,25.90
2022-08-26T15:49:18.442Z,25.80
2022-08-26T15:51:50.530Z,25.80
2022-08-26T15:54:22.236Z,25.80
2022-08-26T15:56:53.022Z,25.70
2022-08-26T15:59:23.610Z,25.70
2022-08-26T16:01:51.993Z,25.70
2022-08-26T16:04:20.339Z,25.70
2022-08-26T16:06:52.031Z,25.70
2022-08-26T16:09:23.852Z,25.80
2022-08-26T16:11:52.364Z,25.90
2022-08-26T16:14:20.908Z,26.00
2022-08-26T16:16:49.259Z,26.00
2022-08-26T16:19:17.679Z,26.10
2022-08-26T16:21:46.332Z,26.10
2022-08-26T16:24:15.955Z,26.10
2022-08-26T16:26:45.265Z,26.20
2022-08-26T16:29:15.424Z,26.20
2022-08-26T16:31:43.632Z,26.30
2022-08-26T16:34:13.189Z,26.40
2022-08-26T16:36:41.373Z,26.40
2022-08-26T16:39:10.191Z,26.50
2022-08-26T16:41:40.203Z,26.50
2022-08-26T16:44:09.409Z,26.60
2022-08-26T16:46:39.631Z,26.60
2022-08-26T16:49:08.143Z,26.50
2022-08-26T16:51:38.155Z,26.50
2022-08-26T16:54:07.893Z,26.40
2022-08-26T16:56:36.852Z,26.40
2022-08-26T16:59:10.486Z,26.40
2022-08-26T17:01:38.837Z,26.40
2022-08-26T17:04:07.109Z,26.30
2022-08-26T17:06:35.289Z,26.20
2022-08-26T17:09:03.607Z,26.10
2022-08-26T17:11:31.760Z,26.00
2022-08-26T17:13:59.929Z,25.80
2022-08-26T17:16:29.847Z,25.70
2022-08-26T17:18:59.044Z,25.60
2022-08-26T17:21:28.602Z,25.50
2022-08-26T17:23:57.260Z,25.40
2022-08-26T17:26:25.368Z,25.30
2022-08-26T17:28:53.790Z,25.20
2022-08-26T17:31:23.254Z,25.10
2022-08-26T17:33:53.835Z,25.10
2022-08-26T17:36:27.672Z,25.00
2022-08-26T17:38:56.759Z,24.90
2022-08-26T17:41:25.240Z,24.90
2022-08-26T17:43:53.481Z,24.80
2022-08-26T17:46:21.995Z,24.70
2022-08-26T17:48:50.229Z,24.60
2022-08-26T17:51:20.358Z,24.60
2022-08-26T17:53:49.519Z,24.50
2022-08-26T17:56:19.361Z,24.50
2022-08-26T17:58:51.257Z,24.40
2022-08-26T18:01:20.174Z,24.30
2022-08-26T18:03:48.798Z,24.30
2022-08-26T18:06:16.958Z,24.20
2022-08-26T18:08:46.755Z,24.10
2022-08-26T18:11:17.207Z,24.10
2022-08-26T18:13:47.615Z,24.00
2022-08-26T18:16:17.632Z,23.90
2022-08-26T18:18:46.471Z,23.90
2022-08-26T18:21:16.766Z,23.80
2022-08-26T18:23:47.399Z,23.80
2022-08-26T18:26:20.331Z,23.70
2022-08-26T18:28:48.441Z,23.70
2022-08-26T18:31:16.851Z,23.60
2022-08-26T18:33:45.188Z,23.60
2022-08-26T18:36:18.416Z,23.50
2022-08-26T18:38:50.425Z,23.50
2022-08-26T18:41:21.567Z,23.40
2022-08-26T18:43:50.598Z,23.40
2022-08-26T18:46:19.927Z,23.30
2022-08-26T18:48:50.984Z,23.20
2022-08-26T18:51:22.296Z,23.20
2022-08-26T18:53:51.779Z,23.20
2022-08-26T18:56:20.554Z,23.10
2022-08-26T18:58:49.038Z,23.00
2022-08-26T19:01:19.351Z,23.00
2022-08-26T19:03:49.030Z,22.90
2022-08-26T19:06:18.951Z,22.90
2022-08-26T19:08:49.884Z,22.80
2022-08-26T19:11:32.122Z,22.80
2022-08-26T19:14:01.571Z,22.80
2022-08-26T19:16:30.426Z,22.70
2022-08-26T19:18:59.042Z,22.70
2022-08-26T19:21:27.322Z,22.70
2022-08-26T19:23:58.056Z,22.70
2022-08-26T19:26:28.264Z,22.60
2022-08-26T19:28:56.962Z,22.60
2022-08-26T19:31:25.300Z,22.60
2022-08-26T19:33:53.810Z,22.50
2022-08-26T19:36:24.849Z,22.50
2022-08-26T19:38:54.258Z,22.50
2022-08-26T19:41:29.484Z,22.50
2022-08-26T19:44:09.750Z,22.40
2022-08-26T19:49:11.878Z,22.40
2022-08-26T19:51:39.954Z,22.40
2022-08-26T19:54:08.190Z,22.30
2022-08-26T19:56:36.509Z,22.30
2022-08-26T19:59:06.145Z,22.30
2022-08-26T20:01:34.328Z,22.20
2022-08-26T20:04:02.775Z,22.20
2022-08-26T20:06:30.849Z,22.20
2022-08-26T20:08:59.007Z,22.20
2022-08-26T20:11:27.204Z,22.20
2022-08-26T20:13:55.383Z,22.20
2022-08-26T20:16:25.042Z,22.10
2022-08-26T20:19:07.179Z,22.10
2022-08-26T20:21:38.135Z,22.10
2022-08-26T20:24:09.410Z,22.10
2022-08-26T20:26:39.533Z,22.10
2022-08-26T20:29:08.755Z,22.10
2022-08-26T20:31:38.709Z,22.00
2022-08-26T20:34:07.482Z,22.00
2022-08-26T20:36:35.931Z,22.00
2022-08-26T20:39:04.989Z,21.90
2022-08-26T20:41:33.501Z,21.90
2022-08-26T20:44:01.917Z,21.90
2022-08-26T20:46:30.421Z,21.90
2022-08-26T20:48:59.857Z,21.90
2022-08-26T20:51:29.335Z,21.90
2022-08-26T20:53:57.439Z,21.80
2022-08-26T20:56:25.588Z,21.80
2022-08-26T20:58:55.159Z,21.80
2022-08-26T21:01:25.776Z,21.80
2022-08-26T21:03:54.881Z,21.80
2022-08-26T21:06:24.914Z,21.70
2022-08-26T21:08:53.186Z,21.70
2022-08-26T21:11:22.477Z,21.70
2022-08-26T21:14:07.060Z,21.70
2022-08-26T21:16:41.143Z,21.70
2022-08-26T21:19:11.830Z,21.70
2022-08-26T21:21:41.977Z,21.70
2022-08-26T21:24:10.728Z,21.70
2022-08-26T21:26:38.801Z,21.60
2022-08-26T21:29:09.502Z,21.60
2022-08-26T21:31:44.885Z,21.60
2022-08-26T21:34:13.923Z,21.60
2022-08-26T21:36:43.489Z,21.50
2022-08-26T21:39:12.372Z,21.50
2022-08-26T21:41:41.099Z,21.50
2022-08-26T21:44:09.981Z,21.50
2022-08-26T21:46:38.047Z,21.50
2022-08-26T21:49:08.596Z,21.50
2022-08-26T21:51:39.693Z,21.50
2022-08-26T21:54:11.298Z,21.50
2022-08-26T21:56:42.106Z,21.40
2022-08-26T21:59:10.313Z,21.40
2022-08-26T22:01:38.984Z,21.40
2022-08-26T22:04:08.381Z,21.40
2022-08-26T22:06:41.812Z,21.40
2022-08-26T22:09:11.386Z,21.40
2022-08-26T22:11:39.606Z,21.30
2022-08-26T22:14:08.024Z,21.30
2022-08-26T22:16:36.098Z,21.30
2022-08-26T22:19:04.200Z,21.30
2022-08-26T22:21:33.384Z,21.30
2022-08-26T22:24:01.699Z,21.20
2022-08-26T22:26:33.717Z,21.20
2022-08-26T22:29:03.152Z,21.20
2022-08-26T22:31:37.912Z,21.20
2022-08-26T22:34:08.942Z,21.20
2022-08-26T22:36:42.896Z,21.20
2022-08-26T22:39:12.951Z,21.10
2022-08-26T22:41:42.943Z,21.10
2022-08-26T22:44:12.483Z,21.10
2022-08-26T22:46:41.378Z,21.10
2022-08-26T22:49:09.900Z,21.00
2022-08-26T22:51:38.133Z,21.00
2022-08-26T22:54:07.154Z,21.00
2022-08-26T22:56:35.944Z,21.00
2022-08-26T22:59:06.751Z,21.00
2022-08-26T23:01:37.154Z,20.90
2022-08-26T23:04:07.329Z,20.90
2022-08-26T23:06:37.343Z,20.90
2022-08-26T23:09:06.585Z,20.90
2022-08-26T23:11:35.142Z,20.90
2022-08-26T23:14:06.282Z,20.90
2022-08-26T23:16:39.549Z,20.90
2022-08-26T23:19:08.580Z,20.90
2022-08-26T23:21:36.745Z,20.80
2022-08-26T23:24:05.881Z,20.80
2022-08-26T23:26:34.611Z,20.80
2022-08-26T23:29:03.502Z,20.80
2022-08-26T23:31:32.303Z,20.80
2022-08-26T23:34:19.305Z,20.80
2022-08-26T23:36:47.563Z,20.80
2022-08-26T23:39:15.856Z,20.80
2022-08-26T23:41:44.008Z,20.80
2022-08-26T23:44:12.692Z,20.80
2022-08-26T23:46:41.102Z,20.80
2022-08-26T23:49:10.761Z,20.70
2022-08-26T23:51:57.241Z,20.70
2022-08-26T23:54:25.486Z,20.70
2022-08-26T23:56:53.637Z,20.70
2022-08-26T23:59:21.741Z,20.70
